createdAt,value
2019-04-06T00:00:09.665Z,50.25
2019-04-06T00:02:39.976Z,52.55
2019-04-06T00:05:09.671Z,56.68
2019-04-06T00:07:38.655Z,51.80
2019-04-06T00:10:07.740Z,54.20
2019-04-06T00:12:36.536Z,49.10
2019-04-06T00:15:07.176Z,50.25
2019-04-06T00:17:35.938Z,48.05
2019-04-06T00:20:07.160Z,50.35
2019-04-06T00:22:36.095Z,51.20
2019-04-06T00:25:06.597Z,51.00
2019-04-06T00:27:35.417Z,51.55
2019-04-06T00:30:05.777Z,51.48
2019-04-06T00:32:36.096Z,49.40
2019-04-06T00:35:06.055Z,51.20
2019-04-06T00:37:34.896Z,55.20
2019-04-06T00:40:04.700Z,51.23
2019-04-06T00:42:33.496Z,55.85
2019-04-06T00:45:02.349Z,51.98
2019-04-06T00:47:31.236Z,54.73
2019-04-06T00:50:00.101Z,52.80
2019-04-06T00:52:28.935Z,49.25
2019-04-06T00:54:57.737Z,58.08
2019-04-06T00:57:27.502Z,53.05
2019-04-06T00:59:56.336Z,53.52
2019-04-06T01:02:25.096Z,49.90
2019-04-06T01:04:53.896Z,56.02
2019-04-06T01:07:23.248Z,54.80
2019-04-06T01:09:52.298Z,55.95
2019-04-06T01:12:21.097Z,52.65
2019-04-06T01:14:49.935Z,55.83
2019-04-06T01:17:18.705Z,57.27
2019-04-06T01:19:47.495Z,55.83
2019-04-06T01:22:16.337Z,52.00
2019-04-06T01:24:45.099Z,53.92
2019-04-06T01:27:13.858Z,52.20
2019-04-06T01:29:42.695Z,57.95
2019-04-06T01:32:11.552Z,62.00
2019-04-06T01:34:40.379Z,58.83
2019-04-06T01:37:09.215Z,64.53
2019-04-06T01:39:38.017Z,60.05
2019-04-06T01:42:06.770Z,59.50
2019-04-06T01:44:35.617Z,58.00
2019-04-06T01:47:04.348Z,59.20
2019-04-06T01:49:33.176Z,59.45
2019-04-06T01:52:01.962Z,60.63
2019-04-06T01:54:30.777Z,61.30
2019-04-06T01:56:59.536Z,55.25
2019-04-06T01:59:28.337Z,58.80
2019-04-06T02:02:04.752Z,55.30
2019-04-06T02:04:33.657Z,57.05
2019-04-06T02:07:02.455Z,54.03
2019-04-06T02:09:31.337Z,58.20
2019-04-06T02:12:00.216Z,59.55
2019-04-06T02:14:29.032Z,61.77
2019-04-06T02:16:57.821Z,58.75
2019-04-06T02:19:26.700Z,60.20
2019-04-06T02:21:55.576Z,58.28
2019-04-06T02:24:24.504Z,57.35
2019-04-06T02:26:53.421Z,60.70
2019-04-06T02:29:22.411Z,61.37
2019-04-06T02:31:58.618Z,56.90
2019-04-06T02:34:45.427Z,57.27
2019-04-06T02:37:19.038Z,54.45
2019-04-06T02:39:52.338Z,53.13
2019-04-06T02:42:22.709Z,54.53
2019-04-06T02:44:51.621Z,61.37
2019-04-06T02:47:20.376Z,62.67
2019-04-06T02:49:49.185Z,68.25
2019-04-06T02:52:18.121Z,64.92
2019-04-06T02:54:46.977Z,64.75
2019-04-06T02:57:15.861Z,52.13
2019-04-06T02:59:44.700Z,56.80
2019-04-06T03:02:13.622Z,54.93
2019-04-06T03:04:42.701Z,52.10
2019-04-06T03:07:11.537Z,56.60
2019-04-06T03:09:40.418Z,59.83
2019-04-06T03:12:09.219Z,60.12
2019-04-06T03:14:38.456Z,58.35
2019-04-06T03:17:07.306Z,59.63
2019-04-06T03:19:36.177Z,62.55
2019-04-06T03:22:05.385Z,60.98
2019-04-06T03:24:34.460Z,66.20
2019-04-06T03:27:03.341Z,68.83
2019-04-06T03:29:32.150Z,61.28
2019-04-06T03:32:01.644Z,59.13
2019-04-06T03:34:30.539Z,61.45
2019-04-06T03:36:59.553Z,58.78
2019-04-06T03:39:28.344Z,61.50
2019-04-06T03:41:57.561Z,58.10
2019-04-06T03:44:26.422Z,60.08
2019-04-06T03:46:55.258Z,61.13
2019-04-06T03:49:24.097Z,62.85
2019-04-06T03:51:52.937Z,61.48
2019-04-06T03:54:21.888Z,61.23
2019-04-06T03:56:50.858Z,61.00
2019-04-06T03:59:19.936Z,58.65
2019-04-06T04:01:48.765Z,61.08
2019-04-06T04:04:17.619Z,65.20
2019-04-06T04:06:46.480Z,62.53
2019-04-06T04:09:15.656Z,66.17
2019-04-06T04:11:44.416Z,56.68
2019-04-06T04:14:13.255Z,65.75
2019-04-06T04:16:42.064Z,65.10
2019-04-06T04:19:10.991Z,60.52
2019-04-06T04:21:39.855Z,62.13
2019-04-06T04:24:08.618Z,60.40
2019-04-06T04:26:37.453Z,67.32
2019-04-06T04:29:06.499Z,66.70
2019-04-06T04:31:35.317Z,61.83
2019-04-06T04:34:04.179Z,62.62
2019-04-06T04:36:33.016Z,59.40
2019-04-06T04:39:02.369Z,66.55
2019-04-06T04:41:31.217Z,66.00
2019-04-06T04:44:00.057Z,67.27
2019-04-06T04:46:28.817Z,58.35
2019-04-06T04:48:57.578Z,61.70
2019-04-06T04:51:26.706Z,66.72
2019-04-06T04:53:55.496Z,68.57
2019-04-06T04:56:24.295Z,61.98
2019-04-06T04:58:53.248Z,58.78
2019-04-06T05:01:22.016Z,63.65
2019-04-06T05:03:50.857Z,62.95
2019-04-06T05:06:19.696Z,65.67
2019-04-06T05:08:48.458Z,60.83
2019-04-06T05:11:17.258Z,66.60
2019-04-06T05:13:46.096Z,62.67
2019-04-06T05:16:15.216Z,64.75
2019-04-06T05:18:44.377Z,65.05
2019-04-06T05:21:13.892Z,66.05
2019-04-06T05:23:42.695Z,65.03
2019-04-06T05:26:11.496Z,63.87
2019-04-06T05:28:40.337Z,66.02
2019-04-06T05:31:09.136Z,52.50
2019-04-06T05:33:38.151Z,56.42
2019-04-06T05:36:07.284Z,59.50
2019-04-06T05:38:36.360Z,65.60
2019-04-06T05:41:05.218Z,64.42
2019-04-06T05:43:34.146Z,64.90
2019-04-06T05:46:02.935Z,65.42
2019-04-06T05:48:31.699Z,64.37
2019-04-06T05:51:00.535Z,63.85
2019-04-06T05:53:29.300Z,63.17
2019-04-06T05:55:58.141Z,61.85
2019-04-06T05:58:27.107Z,59.65
2019-04-06T06:00:55.896Z,60.38
2019-04-06T06:03:24.655Z,62.67
2019-04-06T06:05:53.496Z,65.75
2019-04-06T06:08:22.295Z,67.30
2019-04-06T06:10:51.067Z,60.03
2019-04-06T06:13:19.896Z,66.67
2019-04-06T06:15:48.655Z,56.20
2019-04-06T06:18:25.606Z,58.68
2019-04-06T06:20:48.447Z,55.58
2019-04-06T06:23:18.838Z,63.65
2019-04-06T06:25:48.053Z,62.50
2019-04-06T06:28:19.048Z,60.20
2019-04-06T06:30:47.856Z,60.15
2019-04-06T06:33:16.939Z,58.42
2019-04-06T06:35:45.734Z,59.48
2019-04-06T06:38:14.855Z,60.52
2019-04-06T06:40:43.583Z,60.30
2019-04-06T06:43:12.455Z,54.90
2019-04-06T06:45:41.255Z,58.98
2019-04-06T06:48:10.056Z,55.45
2019-04-06T06:50:38.898Z,49.70
2019-04-06T06:53:07.611Z,57.10
2019-04-06T06:55:40.311Z,57.45
2019-04-06T06:58:09.175Z,56.02
2019-04-06T07:00:37.975Z,53.75
2019-04-06T07:03:06.819Z,54.53
2019-04-06T07:05:35.658Z,56.00
2019-04-06T07:08:04.505Z,54.58
2019-04-06T07:10:33.335Z,54.95
2019-04-06T07:13:15.424Z,52.90
2019-04-06T07:15:52.308Z,60.73
2019-04-06T07:18:22.058Z,55.50
2019-04-06T07:20:56.361Z,56.23
2019-04-06T07:23:25.496Z,56.58
2019-04-06T07:25:58.570Z,57.58
2019-04-06T07:28:36.323Z,57.65
2019-04-06T07:30:56.809Z,53.60
2019-04-06T07:33:25.616Z,55.25
2019-04-06T07:35:54.417Z,56.28
2019-04-06T07:38:23.260Z,56.58
2019-04-06T07:40:52.069Z,61.37
2019-04-06T07:43:20.817Z,58.55
2019-04-06T07:45:49.695Z,57.93
2019-04-06T07:48:18.698Z,63.40
2019-04-06T07:50:47.584Z,59.90
2019-04-06T07:53:16.417Z,57.50
2019-04-06T07:55:45.176Z,57.53
2019-04-06T07:58:13.963Z,57.95
2019-04-06T08:00:42.815Z,58.08
2019-04-06T08:03:11.575Z,59.30
2019-04-06T08:05:40.376Z,55.33
2019-04-06T08:08:09.218Z,58.10
2019-04-06T08:10:38.199Z,53.65
2019-04-06T08:13:06.975Z,64.03
2019-04-06T08:15:35.815Z,56.95
2019-04-06T08:18:04.626Z,56.15
2019-04-06T08:20:33.375Z,54.13
2019-04-06T08:23:02.218Z,51.77
2019-04-06T08:25:31.061Z,52.95
2019-04-06T08:27:59.855Z,56.90
2019-04-06T08:30:28.796Z,92.70
2019-04-06T08:32:57.626Z,81.20
2019-04-06T08:35:26.914Z,70.57
2019-04-06T08:37:55.775Z,81.80
2019-04-06T08:40:24.576Z,65.05
2019-04-06T08:42:53.384Z,57.27
2019-04-06T08:45:22.215Z,54.38
2019-04-06T08:47:51.015Z,69.95
2019-04-06T08:50:19.815Z,59.35
2019-04-06T08:52:48.655Z,52.50
2019-04-06T08:55:17.455Z,61.33
2019-04-06T08:57:46.256Z,56.02
2019-04-06T09:00:16.504Z,61.45
2019-04-06T09:02:45.375Z,57.70
2019-04-06T09:05:14.295Z,56.28
2019-04-06T09:07:43.422Z,62.08
2019-04-06T09:10:12.420Z,55.03
2019-04-06T09:12:41.225Z,54.75
2019-04-06T09:15:10.576Z,49.18
2019-04-06T09:17:39.498Z,52.95
2019-04-06T09:20:08.747Z,52.30
2019-04-06T09:22:37.626Z,55.58
2019-04-06T09:25:07.807Z,53.33
2019-04-06T09:27:36.704Z,50.33
2019-04-06T09:30:07.102Z,54.95
2019-04-06T09:32:35.935Z,52.45
2019-04-06T09:35:06.010Z,47.15
2019-04-06T09:37:41.188Z,53.30
2019-04-06T09:40:09.976Z,50.40
2019-04-06T09:42:38.788Z,50.28
2019-04-06T09:45:15.112Z,47.93
2019-04-06T09:47:46.335Z,43.28
2019-04-06T09:50:17.749Z,47.60
2019-04-06T09:52:51.159Z,49.10
2019-04-06T09:55:21.968Z,51.55
2019-04-06T09:58:08.988Z,54.85
2019-04-06T10:00:54.683Z,51.35
2019-04-06T10:03:43.495Z,52.35
2019-04-06T10:06:25.455Z,50.00
2019-04-06T10:08:58.857Z,53.33
2019-04-06T10:11:34.976Z,51.92
2019-04-06T10:14:23.859Z,52.30
2019-04-06T10:16:54.225Z,49.85
2019-04-06T10:19:39.791Z,59.65
2019-04-06T10:22:13.147Z,55.67
2019-04-06T10:24:49.573Z,58.13
2019-04-06T10:27:25.890Z,56.45
2019-04-06T10:29:56.255Z,65.83
2019-04-06T10:32:29.604Z,66.97
2019-04-06T10:35:09.281Z,69.35
2019-04-06T10:37:39.630Z,65.28
2019-04-06T10:40:12.816Z,64.42
2019-04-06T10:42:43.181Z,65.15
2019-04-06T10:45:16.498Z,67.03
2019-04-06T10:48:03.015Z,58.78
2019-04-06T10:50:36.533Z,59.88
2019-04-06T10:53:23.464Z,65.00
2019-04-06T10:55:56.944Z,61.53
2019-04-06T10:58:43.684Z,74.05
2019-04-06T11:01:19.904Z,93.78
2019-04-06T11:04:10.897Z,83.45
2019-04-06T11:06:56.977Z,93.25
2019-04-06T11:09:27.378Z,77.15
2019-04-06T11:12:00.226Z,81.95
2019-04-06T11:14:45.983Z,73.05
2019-04-06T11:17:28.416Z,63.25
2019-04-06T11:20:14.177Z,65.47
2019-04-06T11:22:44.703Z,63.05
2019-04-06T11:25:15.105Z,63.73
2019-04-06T11:27:48.336Z,64.62
2019-04-06T11:30:19.265Z,63.42
2019-04-06T11:33:05.838Z,59.85
2019-04-06T11:35:36.663Z,59.23
2019-04-06T11:38:07.102Z,64.27
2019-04-06T11:40:49.697Z,68.55
2019-04-06T11:43:35.258Z,66.17
2019-04-06T11:46:05.944Z,65.17
2019-04-06T11:48:42.219Z,67.35
2019-04-06T11:51:28.855Z,64.97
2019-04-06T11:54:05.631Z,66.10
2019-04-06T11:56:52.269Z,70.72
2019-04-06T11:59:22.898Z,75.22
2019-04-06T12:02:09.336Z,68.00
2019-04-06T12:04:45.497Z,47.10
2019-04-06T12:07:27.840Z,39.15
2019-04-06T12:10:13.407Z,27.85
2019-04-06T12:12:55.568Z,30.90
2019-04-06T12:15:36.895Z,27.67
2019-04-06T12:18:19.376Z,25.50
2019-04-06T12:21:01.943Z,20.27
2019-04-06T12:23:50.615Z,20.70
2019-04-06T12:26:26.543Z,17.55
2019-04-06T12:29:15.782Z,16.87
2019-04-06T12:32:01.655Z,14.70
2019-04-06T12:34:32.133Z,14.83
2019-04-06T12:37:19.015Z,11.80
2019-04-06T12:39:53.441Z,10.78
2019-04-06T12:42:21.644Z,10.48
2019-04-06T12:44:54.824Z,15.00
2019-04-06T12:47:41.884Z,12.03
2019-04-06T12:50:18.735Z,10.60
2019-04-06T12:52:55.335Z,10.32
2019-04-06T12:55:26.111Z,10.15
2019-04-06T12:58:13.445Z,9.70
2019-04-06T13:00:53.067Z,9.80
2019-04-06T13:03:25.896Z,7.92
2019-04-06T13:06:15.034Z,9.05
2019-04-06T13:08:45.871Z,6.90
2019-04-06T13:11:19.484Z,6.08
2019-04-06T13:13:49.387Z,6.95
2019-04-06T13:16:29.259Z,5.58
2019-04-06T13:19:03.549Z,6.37
2019-04-06T13:21:40.268Z,5.78
2019-04-06T13:24:14.948Z,6.87
2019-04-06T13:26:49.779Z,5.25
2019-04-06T13:29:21.348Z,5.03
2019-04-06T13:31:52.150Z,6.80
2019-04-06T13:34:39.370Z,6.75
2019-04-06T13:37:10.786Z,8.33
2019-04-06T13:39:58.175Z,6.33
2019-04-06T13:42:31.455Z,5.85
2019-04-06T13:45:02.628Z,8.23
2019-04-06T13:47:41.391Z,5.03
2019-04-06T13:50:21.958Z,5.25
2019-04-06T13:52:56.996Z,7.00
2019-04-06T13:55:28.240Z,7.90
2019-04-06T13:58:15.570Z,4.65
2019-04-06T14:01:13.311Z,6.25
2019-04-06T14:03:51.240Z,4.62
2019-04-06T14:06:40.046Z,3.85
2019-04-06T14:09:12.107Z,3.60
2019-04-06T14:11:58.962Z,5.08
2019-04-06T14:20:47.900Z,4.58
2019-04-06T14:23:24.150Z,3.70
2019-04-06T14:26:01.070Z,3.85
2019-04-06T14:28:35.021Z,3.80
2019-04-06T14:31:11.376Z,3.40
2019-04-06T14:33:45.152Z,3.47
2019-04-06T14:36:16.133Z,4.60
2019-04-06T14:38:47.803Z,3.33
2019-04-06T14:41:25.257Z,4.67
2019-04-06T14:44:02.269Z,6.60
2019-04-06T14:46:35.857Z,2.98
2019-04-06T14:49:28.873Z,7.53
2019-04-06T14:51:57.929Z,11.73
2019-04-06T14:54:44.392Z,9.20
2019-04-06T14:57:24.740Z,7.00
2019-04-06T14:59:55.788Z,7.37
2019-04-06T15:02:35.913Z,6.47
2019-04-06T15:05:23.940Z,7.83
2019-04-06T15:08:11.374Z,7.87
2019-04-06T15:10:45.425Z,9.75
2019-04-06T15:16:02.068Z,7.58
2019-04-06T15:18:42.404Z,9.23
2019-04-06T15:21:28.303Z,10.45
2019-04-06T15:24:02.500Z,8.90
2019-04-06T15:26:49.721Z,10.35
2019-04-06T15:29:27.453Z,12.68
2019-04-06T15:32:04.707Z,11.30
2019-04-06T15:34:42.017Z,19.45
2019-04-06T15:37:19.298Z,16.57
2019-04-06T15:40:06.284Z,18.95
2019-04-06T15:42:37.568Z,18.20
2019-04-06T15:45:24.467Z,16.25
2019-04-06T15:47:55.505Z,15.95
2019-04-06T15:50:32.696Z,17.95
2019-04-06T15:53:03.615Z,13.53
2019-04-06T15:55:40.564Z,11.55
2019-04-06T15:58:11.758Z,7.17
2019-04-06T16:00:58.978Z,12.73
2019-04-06T16:03:41.464Z,7.92
2019-04-06T16:06:12.605Z,5.53
2019-04-06T16:08:47.256Z,12.73
2019-04-06T16:11:34.631Z,5.90
2019-04-06T16:14:22.698Z,6.90
2019-04-06T16:17:12.496Z,7.72
2019-04-06T16:19:43.415Z,4.75
2019-04-06T16:22:14.146Z,5.17
2019-04-06T16:24:51.300Z,6.28
2019-04-06T16:27:25.654Z,6.95
2019-04-06T16:30:02.698Z,9.43
2019-04-06T16:32:49.335Z,4.83
2019-04-06T16:35:35.719Z,5.00
2019-04-06T16:38:23.123Z,5.85
2019-04-06T16:41:03.627Z,7.05
2019-04-06T16:43:38.403Z,6.00
2019-04-06T16:46:21.947Z,5.28
2019-04-06T16:48:55.786Z,6.53
2019-04-06T16:51:36.556Z,7.45
2019-04-06T16:54:07.778Z,7.85
2019-04-06T16:56:41.825Z,4.97
2019-04-06T16:59:28.940Z,6.03
2019-04-06T17:02:22.060Z,11.95
2019-04-06T17:05:02.541Z,8.35
2019-04-06T17:07:36.827Z,6.95
2019-04-06T17:10:12.598Z,9.23
2019-04-06T17:12:43.655Z,13.08
2019-04-06T17:15:15.297Z,15.25
2019-04-06T17:17:46.791Z,18.32
2019-04-06T17:20:23.904Z,27.98
2019-04-06T17:22:57.736Z,25.90
2019-04-06T17:25:46.697Z,30.50
2019-04-06T17:28:34.077Z,28.35
2019-04-06T17:31:21.833Z,14.58
2019-04-06T17:33:53.195Z,21.62
2019-04-06T17:36:39.696Z,19.05
2019-04-06T17:39:28.977Z,26.07
2019-04-06T17:42:03.335Z,37.40
2019-04-06T17:44:34.867Z,50.43
2019-04-06T17:47:06.297Z,48.30
2019-04-06T17:49:40.034Z,43.25
2019-04-06T17:52:10.945Z,47.10
2019-04-06T17:54:59.007Z,37.48
2019-04-06T17:57:39.456Z,35.68
2019-04-06T18:00:27.562Z,40.83
2019-04-06T18:02:58.692Z,49.05
2019-04-06T18:05:44.938Z,36.38
2019-04-06T18:08:34.105Z,39.83
2019-04-06T18:11:11.346Z,36.58
2019-04-06T18:13:49.267Z,41.68
2019-04-06T18:16:20.874Z,33.90
2019-04-06T18:18:52.131Z,29.10
2019-04-06T18:21:21.667Z,22.48
2019-04-06T18:23:51.679Z,26.07
2019-04-06T18:26:21.858Z,29.80
2019-04-06T18:28:51.706Z,30.72
2019-04-06T18:31:23.065Z,26.62
2019-04-06T18:33:53.585Z,20.10
2019-04-06T18:36:25.373Z,15.78
2019-04-06T18:39:02.833Z,12.78
2019-04-06T18:41:32.665Z,33.40
2019-04-06T18:44:02.522Z,51.98
2019-04-06T18:46:32.797Z,82.27
2019-04-06T18:49:03.265Z,70.20
2019-04-06T18:51:32.812Z,36.63
2019-04-06T18:54:03.046Z,35.33
2019-04-06T18:56:32.867Z,36.80
2019-04-06T18:59:02.945Z,25.45
2019-04-06T19:01:32.781Z,32.83
2019-04-06T19:04:02.483Z,35.80
2019-04-06T19:06:32.602Z,39.88
2019-04-06T19:09:01.998Z,35.98
2019-04-06T19:11:31.612Z,38.83
2019-04-06T19:14:01.225Z,41.60
2019-04-06T19:16:31.189Z,38.98
2019-04-06T19:19:01.378Z,38.65
2019-04-06T19:21:32.094Z,44.70
2019-04-06T19:24:02.305Z,40.45
2019-04-06T19:26:32.234Z,36.65
2019-04-06T19:29:02.770Z,40.88
2019-04-06T19:31:32.698Z,37.33
2019-04-06T19:34:02.584Z,39.48
2019-04-06T19:36:32.084Z,37.38
2019-04-06T19:39:01.381Z,38.08
2019-04-06T19:41:31.506Z,36.30
2019-04-06T19:44:01.402Z,40.28
2019-04-06T19:46:30.948Z,55.60
2019-04-06T19:49:01.187Z,36.25
2019-04-06T19:51:30.901Z,29.07
2019-04-06T19:54:00.432Z,25.80
2019-04-06T19:56:30.386Z,29.40
2019-04-06T19:58:59.947Z,35.50
2019-04-06T20:01:29.785Z,48.17
2019-04-06T20:03:59.617Z,50.83
2019-04-06T20:06:29.708Z,32.17
2019-04-06T20:08:59.490Z,40.17
2019-04-06T20:11:29.905Z,36.68
2019-04-06T20:13:59.257Z,48.90
2019-04-06T20:16:28.655Z,51.77
2019-04-06T20:18:58.639Z,50.30
2019-04-06T20:21:29.668Z,47.80
2019-04-06T20:23:59.096Z,76.80
2019-04-06T20:26:32.237Z,39.00
2019-04-06T20:29:01.585Z,33.05
2019-04-06T20:31:30.895Z,33.05
2019-04-06T20:34:00.903Z,49.67
2019-04-06T20:36:32.356Z,219.37
2019-04-06T20:39:02.027Z,77.78
2019-04-06T20:41:32.133Z,75.40
2019-04-06T20:44:01.655Z,104.78
2019-04-06T20:46:31.892Z,87.17
2019-04-06T20:49:01.140Z,96.75
2019-04-06T20:51:31.605Z,99.60
2019-04-06T20:54:01.435Z,56.60
2019-04-06T20:56:31.526Z,53.68
2019-04-06T20:59:01.527Z,53.45
2019-04-06T21:01:31.495Z,106.80
2019-04-06T21:04:03.034Z,100.18
2019-04-06T21:06:33.434Z,59.10
2019-04-06T21:09:03.263Z,47.20
2019-04-06T21:11:32.776Z,36.30
2019-04-06T21:14:03.339Z,42.80
2019-04-06T21:16:33.164Z,44.38
2019-04-06T21:19:02.619Z,48.00
2019-04-06T21:21:32.650Z,38.70
2019-04-06T21:24:02.554Z,37.93
2019-04-06T21:26:32.525Z,46.23
2019-04-06T21:29:02.560Z,34.05
2019-04-06T21:31:32.098Z,37.35
2019-04-06T21:34:10.560Z,36.68
2019-04-06T21:36:33.443Z,39.85
2019-04-06T21:39:03.057Z,50.55
2019-04-06T21:41:32.971Z,62.80
2019-04-06T21:44:03.334Z,47.15
2019-04-06T21:46:33.644Z,51.10
2019-04-06T21:49:03.554Z,57.08
2019-04-06T21:51:33.145Z,61.95
2019-04-06T21:54:03.132Z,47.85
2019-04-06T21:56:32.835Z,44.05
2019-04-06T21:59:02.819Z,43.30
2019-04-06T22:01:33.103Z,38.63
2019-04-06T22:04:03.147Z,31.42
2019-04-06T22:06:32.688Z,31.48
2019-04-06T22:09:02.765Z,29.98
2019-04-06T22:11:33.211Z,30.40
2019-04-06T22:14:02.469Z,46.60
2019-04-06T22:16:32.552Z,48.63
2019-04-06T22:19:01.988Z,34.70
2019-04-06T22:21:32.069Z,34.03
2019-04-06T22:24:01.511Z,46.80
2019-04-06T22:26:30.899Z,41.90
2019-04-06T22:29:00.545Z,51.70
2019-04-06T22:31:30.745Z,37.80
2019-04-06T22:34:00.465Z,35.28
2019-04-06T22:36:29.855Z,209.15
2019-04-06T22:38:59.426Z,92.92
2019-04-06T22:41:28.985Z,55.52
2019-04-06T22:43:58.245Z,45.03
2019-04-06T22:46:27.924Z,38.67
2019-04-06T22:48:57.502Z,43.38
2019-04-06T22:51:27.342Z,53.80
2019-04-06T22:53:56.968Z,54.60
2019-04-06T22:56:26.375Z,43.42
2019-04-06T22:58:55.855Z,39.13
2019-04-06T23:01:26.712Z,46.42
2019-04-06T23:04:17.101Z,36.10
2019-04-06T23:06:55.152Z,32.10
2019-04-06T23:09:24.865Z,33.50
2019-04-06T23:11:54.457Z,32.25
2019-04-06T23:14:24.017Z,34.60
2019-04-06T23:16:54.060Z,38.95
2019-04-06T23:19:23.897Z,35.88
2019-04-06T23:21:53.456Z,49.90
2019-04-06T23:24:22.935Z,36.48
2019-04-06T23:26:52.987Z,37.65
2019-04-06T23:29:22.215Z,33.53
2019-04-06T23:31:52.140Z,37.03
2019-04-06T23:34:21.955Z,39.90
2019-04-06T23:36:52.214Z,35.98
2019-04-06T23:39:22.867Z,36.17
2019-04-06T23:41:52.175Z,29.92
2019-04-06T23:44:21.697Z,37.50
2019-04-06T23:46:51.182Z,43.63
2019-04-06T23:49:20.771Z,50.38
2019-04-06T23:51:50.803Z,46.68
2019-04-06T23:54:20.510Z,47.90
2019-04-06T23:56:51.250Z,50.12
2019-04-06T23:59:20.993Z,51.80
